createdAt,value
2018-09-02T00:00:30.127Z,95.90
2018-09-02T00:02:57.671Z,95.90
2018-09-02T00:05:25.167Z,96.00
2018-09-02T00:07:52.657Z,96.00
2018-09-02T00:10:20.230Z,95.90
2018-09-02T00:12:47.896Z,96.00
2018-09-02T00:15:16.677Z,95.90
2018-09-02T00:17:44.222Z,96.00
2018-09-02T00:20:11.769Z,96.20
2018-09-02T00:22:39.457Z,96.20
2018-09-02T00:25:07.023Z,96.10
2018-09-02T00:27:34.543Z,96.10
2018-09-02T00:30:02.166Z,96.10
2018-09-02T00:32:29.620Z,96.20
2018-09-02T00:34:57.122Z,96.20
2018-09-02T00:37:24.599Z,96.30
2018-09-02T00:39:52.147Z,96.40
2018-09-02T00:42:19.776Z,96.40
2018-09-02T00:44:47.327Z,96.40
2018-09-02T00:47:16.672Z,96.40
2018-09-02T00:49:44.255Z,96.40
2018-09-02T00:52:11.755Z,96.40
2018-09-02T00:54:39.326Z,96.50
2018-09-02T00:57:07.319Z,96.50
2018-09-02T00:59:34.968Z,96.60
2018-09-02T01:02:03.894Z,96.60
2018-09-02T01:04:32.154Z,96.50
2018-09-02T01:07:00.215Z,96.70
2018-09-02T01:09:28.210Z,96.70
2018-09-02T01:11:56.189Z,96.80
2018-09-02T01:14:24.221Z,96.70
2018-09-02T01:16:51.847Z,96.70
2018-09-02T01:19:19.328Z,96.60
2018-09-02T01:21:46.812Z,96.60
2018-09-02T01:24:14.251Z,96.70
2018-09-02T01:26:41.723Z,96.80
2018-09-02T01:29:09.216Z,96.80
2018-09-02T01:31:36.837Z,96.90
2018-09-02T01:34:04.879Z,97.00
2018-09-02T01:36:32.347Z,97.00
2018-09-02T01:38:59.939Z,97.00
2018-09-02T01:41:27.519Z,96.90
2018-09-02T01:43:55.240Z,97.00
2018-09-02T01:46:22.841Z,97.10
2018-09-02T01:48:50.626Z,97.10
2018-09-02T01:51:18.240Z,97.20
2018-09-02T01:53:45.968Z,97.10
2018-09-02T01:56:13.580Z,97.20
2018-09-02T01:58:41.064Z,97.10
2018-09-02T02:01:08.618Z,97.30
2018-09-02T02:03:36.111Z,97.20
2018-09-02T02:06:03.645Z,97.20
2018-09-02T02:08:31.163Z,97.30
2018-09-02T02:10:58.620Z,97.40
2018-09-02T02:13:26.107Z,97.30
2018-09-02T02:15:53.722Z,97.40
2018-09-02T02:18:21.247Z,97.40
2018-09-02T02:20:48.734Z,97.50
2018-09-02T02:23:16.248Z,97.50
2018-09-02T02:25:43.740Z,97.50
2018-09-02T02:28:11.199Z,97.60
2018-09-02T02:30:38.680Z,97.60
2018-09-02T02:33:06.130Z,97.80
2018-09-02T02:35:33.652Z,97.70
2018-09-02T02:38:01.161Z,97.80
2018-09-02T02:40:28.640Z,97.80
2018-09-02T02:42:56.055Z,97.80
2018-09-02T02:45:23.642Z,97.80
2018-09-02T02:47:51.236Z,97.90
2018-09-02T02:50:18.883Z,97.90
2018-09-02T02:52:51.935Z,97.90
2018-09-02T02:55:19.449Z,97.80
2018-09-02T02:57:47.033Z,98.00
2018-09-02T03:00:14.584Z,97.80
2018-09-02T03:02:42.154Z,97.80
2018-09-02T03:05:09.649Z,97.90
2018-09-02T03:07:37.339Z,97.90
2018-09-02T03:10:04.913Z,98.00
2018-09-02T03:12:32.411Z,98.00
2018-09-02T03:14:59.942Z,98.10
2018-09-02T03:17:27.395Z,98.10
2018-09-02T03:19:54.883Z,98.10
2018-09-02T03:22:22.343Z,98.10
2018-09-02T03:24:49.927Z,98.20
2018-09-02T03:27:17.526Z,98.30
2018-09-02T03:29:45.099Z,98.30
2018-09-02T03:32:12.590Z,98.30
2018-09-02T03:34:40.043Z,98.30
2018-09-02T03:37:07.581Z,98.40
2018-09-02T03:39:35.133Z,98.40
2018-09-02T03:42:02.691Z,98.40
2018-09-02T03:44:30.139Z,98.30
2018-09-02T03:46:57.559Z,98.40
2018-09-02T03:49:25.106Z,98.30
2018-09-02T03:51:52.551Z,98.50
2018-09-02T03:54:20.015Z,98.50
2018-09-02T03:56:47.467Z,98.50
2018-09-02T03:59:15.104Z,98.40
2018-09-02T04:01:42.871Z,98.60
2018-09-02T04:04:10.330Z,98.50
2018-09-02T04:06:37.953Z,98.50
2018-09-02T04:09:07.830Z,98.60
2018-09-02T04:11:35.486Z,98.40
2018-09-02T04:14:03.015Z,98.60
2018-09-02T04:16:30.658Z,98.80
2018-09-02T04:18:58.203Z,98.80
2018-09-02T04:21:25.730Z,99.00
2018-09-02T04:23:53.383Z,98.90
2018-09-02T04:26:21.048Z,99.00
2018-09-02T04:28:48.563Z,99.10
2018-09-02T04:31:16.140Z,99.00
2018-09-02T04:33:43.641Z,99.20
2018-09-02T04:36:11.072Z,99.30
2018-09-02T04:38:38.537Z,99.30
2018-09-02T04:41:06.009Z,99.20
2018-09-02T04:43:33.601Z,99.40
2018-09-02T04:46:01.287Z,99.40
2018-09-02T04:48:28.875Z,99.40
2018-09-02T04:50:56.491Z,99.40
2018-09-02T04:53:24.015Z,99.50
2018-09-02T04:55:51.470Z,99.50
2018-09-02T04:58:18.920Z,99.60
2018-09-02T05:00:46.451Z,99.80
2018-09-02T05:03:13.984Z,99.70
2018-09-02T05:05:41.473Z,99.80
2018-09-02T05:08:08.910Z,99.90
2018-09-02T05:10:38.805Z,99.90
2018-09-02T05:13:06.317Z,99.60
2018-09-02T05:15:33.826Z,99.80
2018-09-02T05:18:01.467Z,99.90
2018-09-02T05:20:29.002Z,99.90
2018-09-02T05:22:56.729Z,99.90
2018-09-02T05:25:24.179Z,99.90
2018-09-02T05:27:51.686Z,99.90
2018-09-02T05:30:23.359Z,99.90
2018-09-02T05:32:51.928Z,99.90
2018-09-02T05:35:19.492Z,99.90
2018-09-02T05:37:46.928Z,99.90
2018-09-02T05:40:15.053Z,99.90
2018-09-02T05:42:42.655Z,99.90
2018-09-02T05:45:10.256Z,99.90
2018-09-02T05:47:37.927Z,99.90
2018-09-02T05:50:05.476Z,99.90
2018-09-02T05:52:33.119Z,99.90
2018-09-02T05:55:00.760Z,99.90
2018-09-02T05:57:28.226Z,99.90
2018-09-02T05:59:55.709Z,99.90
2018-09-02T06:02:23.141Z,99.90
2018-09-02T06:04:50.744Z,99.90
2018-09-02T06:07:18.356Z,99.90
2018-09-02T06:09:45.872Z,99.90
2018-09-02T06:12:13.371Z,99.90
2018-09-02T06:14:40.870Z,99.90
2018-09-02T06:17:08.483Z,99.90
2018-09-02T06:19:36.005Z,99.90
2018-09-02T06:22:03.743Z,99.90
2018-09-02T06:24:31.226Z,99.90
2018-09-02T06:26:58.839Z,99.90
2018-09-02T06:29:26.420Z,99.90
2018-09-02T06:31:54.008Z,99.90
2018-09-02T06:34:21.600Z,99.90
2018-09-02T06:36:49.195Z,99.90
2018-09-02T06:39:16.758Z,99.90
2018-09-02T06:41:44.395Z,99.90
2018-09-02T06:44:11.978Z,99.90
2018-09-02T06:46:39.484Z,99.90
2018-09-02T06:49:06.960Z,99.90
2018-09-02T06:51:34.632Z,99.90
2018-09-02T06:54:02.185Z,99.90
2018-09-02T06:56:29.800Z,99.90
2018-09-02T06:58:57.362Z,99.90
2018-09-02T07:01:24.842Z,99.90
2018-09-02T07:03:52.665Z,99.90
2018-09-02T07:06:20.502Z,99.90
2018-09-02T07:08:47.986Z,99.90
2018-09-02T07:11:15.602Z,99.90
2018-09-02T07:13:43.128Z,99.90
2018-09-02T07:16:10.711Z,99.90
2018-09-02T07:18:38.408Z,99.90
2018-09-02T07:21:06.002Z,99.90
2018-09-02T07:23:33.481Z,99.90
2018-09-02T07:26:00.916Z,99.90
2018-09-02T07:28:28.402Z,99.90
2018-09-02T07:30:56.048Z,99.90
2018-09-02T07:33:23.535Z,99.90
2018-09-02T07:35:51.066Z,99.90
2018-09-02T07:38:18.676Z,99.90
2018-09-02T07:40:46.339Z,99.90
2018-09-02T07:43:13.767Z,99.90
2018-09-02T07:45:41.383Z,99.90
2018-09-02T07:48:09.091Z,99.90
2018-09-02T07:50:36.671Z,99.90
2018-09-02T07:53:04.441Z,99.90
2018-09-02T07:55:32.007Z,99.90
2018-09-02T07:57:59.755Z,99.90
2018-09-02T08:00:27.247Z,99.90
2018-09-02T08:02:54.807Z,99.90
2018-09-02T08:05:22.264Z,99.90
2018-09-02T08:07:49.903Z,99.90
2018-09-02T08:10:17.355Z,99.90
2018-09-02T08:12:45.072Z,99.90
2018-09-02T08:15:12.523Z,99.90
2018-09-02T08:17:40.426Z,99.90
2018-09-02T08:20:08.401Z,99.90
2018-09-02T08:22:36.726Z,99.90
2018-09-02T08:25:04.666Z,99.90
2018-09-02T08:27:32.396Z,99.90
2018-09-02T08:29:59.952Z,99.90
2018-09-02T08:32:27.428Z,99.90
2018-09-02T08:34:55.024Z,99.90
2018-09-02T08:37:22.583Z,99.90
2018-09-02T08:39:50.115Z,99.90
2018-09-02T08:42:17.767Z,99.90
2018-09-02T08:44:45.919Z,99.90
2018-09-02T08:47:13.534Z,99.90
2018-09-02T08:49:41.401Z,99.90
2018-09-02T08:52:09.589Z,99.90
2018-09-02T08:54:37.043Z,99.60
2018-09-02T08:57:04.852Z,99.80
2018-09-02T08:59:32.353Z,99.80
2018-09-02T09:01:59.954Z,99.70
2018-09-02T09:04:29.557Z,99.60
2018-09-02T09:06:57.201Z,99.60
2018-09-02T09:09:24.648Z,99.10
2018-09-02T09:11:52.163Z,98.70
2018-09-02T09:14:19.646Z,98.00
2018-09-02T09:16:47.522Z,97.70
2018-09-02T09:19:14.955Z,97.10
2018-09-02T09:21:42.772Z,96.90
2018-09-02T09:24:10.255Z,97.00
2018-09-02T09:26:37.776Z,96.80
2018-09-02T09:29:05.275Z,96.80
2018-09-02T09:31:33.068Z,96.80
2018-09-02T09:34:00.713Z,96.90
2018-09-02T09:36:28.231Z,97.00
2018-09-02T09:38:55.712Z,97.00
2018-09-02T09:41:23.435Z,96.90
2018-09-02T09:43:50.956Z,97.00
2018-09-02T09:46:18.715Z,97.20
2018-09-02T09:48:46.232Z,97.30
2018-09-02T09:51:13.902Z,97.40
2018-09-02T09:53:41.469Z,97.40
2018-09-02T09:56:09.241Z,97.60
2018-09-02T09:58:36.720Z,97.40
2018-09-02T10:01:04.255Z,97.40
2018-09-02T10:03:31.790Z,97.40
2018-09-02T10:05:59.440Z,97.70
2018-09-02T10:08:26.919Z,98.00
2018-09-02T10:10:54.425Z,97.90
2018-09-02T10:13:22.012Z,98.20
2018-09-02T10:15:49.567Z,98.30
2018-09-02T10:18:17.226Z,98.10
2018-09-02T10:20:44.835Z,98.20
2018-09-02T10:23:12.319Z,98.10
2018-09-02T10:25:39.785Z,98.30
2018-09-02T10:28:07.363Z,98.20
2018-09-02T10:30:34.888Z,98.30
2018-09-02T10:33:02.522Z,98.20
2018-09-02T10:35:30.551Z,98.20
2018-09-02T10:37:58.087Z,98.10
2018-09-02T10:40:25.608Z,98.00
2018-09-02T10:42:53.104Z,97.90
2018-09-02T10:45:20.672Z,98.00
2018-09-02T10:47:48.119Z,97.90
2018-09-02T10:50:15.623Z,97.80
2018-09-02T10:52:43.251Z,97.80
2018-09-02T10:55:10.763Z,97.80
2018-09-02T10:57:39.303Z,97.70
2018-09-02T11:00:08.275Z,97.80
2018-09-02T11:02:35.787Z,97.80
2018-09-02T11:05:03.513Z,97.60
2018-09-02T11:07:31.006Z,97.50
2018-09-02T11:09:58.503Z,97.40
2018-09-02T11:12:26.055Z,97.50
2018-09-02T11:15:03.440Z,97.50
2018-09-02T11:17:30.924Z,97.50
2018-09-02T11:19:58.399Z,97.20
2018-09-02T11:22:25.846Z,97.50
2018-09-02T11:24:53.323Z,97.40
2018-09-02T11:27:20.819Z,97.20
2018-09-02T11:29:48.403Z,97.20
2018-09-02T11:32:15.887Z,97.20
2018-09-02T11:34:43.375Z,97.20
2018-09-02T11:37:14.449Z,97.10
2018-09-02T11:39:41.998Z,97.10
2018-09-02T11:42:09.502Z,97.00
2018-09-02T11:44:37.016Z,97.00
2018-09-02T11:47:04.536Z,97.20
2018-09-02T11:49:32.003Z,97.40
2018-09-02T11:51:59.520Z,97.30
2018-09-02T11:54:26.982Z,97.40
2018-09-02T11:56:54.464Z,97.40
2018-09-02T11:59:21.979Z,97.20
2018-09-02T12:01:49.517Z,97.20
2018-09-02T12:04:17.111Z,97.30
2018-09-02T12:06:44.554Z,97.20
2018-09-02T12:09:12.026Z,97.30
2018-09-02T12:11:39.512Z,97.40
2018-09-02T12:14:10.857Z,97.40
2018-09-02T12:16:38.367Z,97.40
2018-09-02T12:19:05.945Z,97.50
2018-09-02T12:21:33.433Z,97.40
2018-09-02T12:24:00.887Z,97.50
2018-09-02T12:26:28.414Z,97.70
2018-09-02T12:28:55.888Z,97.70
2018-09-02T12:31:23.417Z,97.70
2018-09-02T12:33:50.900Z,97.50
2018-09-02T12:36:19.700Z,97.60
2018-09-02T12:38:47.804Z,97.50
2018-09-02T12:41:15.303Z,97.50
2018-09-02T12:43:43.070Z,97.50
2018-09-02T12:46:10.536Z,97.50
2018-09-02T12:48:38.121Z,97.50
2018-09-02T12:51:05.981Z,97.60
2018-09-02T12:53:33.508Z,97.70
2018-09-02T12:56:01.592Z,98.00
2018-09-02T12:58:33.364Z,98.40
2018-09-02T13:01:11.094Z,98.50
2018-09-02T13:03:39.509Z,98.50
2018-09-02T13:06:07.805Z,98.50
2018-09-02T13:08:37.984Z,98.60
2018-09-02T13:11:05.723Z,98.60
2018-09-02T13:13:33.263Z,98.50
2018-09-02T13:16:00.812Z,98.60
2018-09-02T13:18:28.387Z,98.60
2018-09-02T13:20:55.961Z,98.50
2018-09-02T13:23:27.175Z,98.50
2018-09-02T13:25:57.149Z,98.50
2018-09-02T13:28:25.074Z,98.50
2018-09-02T13:30:52.680Z,98.70
2018-09-02T13:33:20.255Z,98.60
2018-09-02T13:35:47.741Z,98.50
2018-09-02T13:38:15.270Z,98.50
2018-09-02T13:40:42.900Z,98.70
2018-09-02T13:43:10.525Z,98.70
2018-09-02T13:45:37.977Z,98.70
2018-09-02T13:48:05.504Z,98.70
2018-09-02T13:50:33.505Z,98.70
2018-09-02T13:53:01.021Z,98.70
2018-09-02T13:55:28.541Z,98.70
2018-09-02T13:57:59.905Z,98.70
2018-09-02T14:00:27.398Z,98.70
2018-09-02T14:02:54.844Z,98.20
2018-09-02T14:05:23.932Z,98.30
2018-09-02T14:07:52.558Z,98.60
2018-09-02T14:10:19.992Z,98.70
2018-09-02T14:12:47.519Z,98.60
2018-09-02T14:15:15.019Z,98.60
2018-09-02T14:17:43.481Z,98.30
2018-09-02T14:20:11.492Z,98.30
2018-09-02T14:22:39.350Z,98.30
2018-09-02T14:25:07.343Z,98.20
2018-09-02T14:27:35.345Z,98.40
2018-09-02T14:30:03.036Z,98.40
2018-09-02T14:32:30.577Z,98.80
2018-09-02T14:34:59.294Z,98.60
2018-09-02T14:37:26.817Z,98.60
2018-09-02T14:39:54.309Z,98.60
2018-09-02T14:42:28.321Z,98.60
2018-09-02T14:44:55.854Z,98.50
2018-09-02T14:47:24.530Z,98.70
2018-09-02T14:49:52.048Z,98.60
2018-09-02T14:52:26.679Z,98.60
2018-09-02T14:54:54.588Z,98.60
2018-09-02T14:57:22.955Z,98.60
2018-09-02T14:59:50.540Z,98.50
2018-09-02T15:02:18.343Z,98.50
2018-09-02T15:04:46.989Z,98.60
2018-09-02T15:07:17.210Z,98.60
2018-09-02T15:09:46.280Z,98.90
2018-09-02T15:12:15.684Z,99.00
2018-09-02T15:14:44.090Z,99.20
2018-09-02T15:17:11.669Z,99.20
2018-09-02T15:19:40.006Z,99.30
2018-09-02T15:22:07.541Z,99.40
2018-09-02T15:24:35.567Z,99.40
2018-09-02T15:27:03.164Z,99.40
2018-09-02T15:29:30.617Z,99.30
2018-09-02T15:31:58.524Z,99.40
2018-09-02T15:34:27.593Z,99.30
2018-09-02T15:36:55.085Z,99.30
2018-09-02T15:39:22.611Z,99.40
2018-09-02T15:41:50.613Z,99.40
2018-09-02T15:44:19.592Z,99.50
2018-09-02T15:46:48.429Z,99.50
2018-09-02T15:52:19.754Z,99.60
2018-09-02T15:54:51.500Z,99.90
2018-09-02T15:57:26.871Z,99.90
2018-09-02T15:59:54.794Z,99.90
2018-09-02T16:02:25.736Z,99.90
2018-09-02T16:04:55.053Z,99.90
2018-09-02T16:07:27.575Z,99.90
2018-09-02T16:09:55.742Z,99.90
2018-09-02T16:12:28.073Z,99.90
2018-09-02T16:14:57.801Z,99.90
2018-09-02T16:17:27.071Z,99.90
2018-09-02T16:19:54.828Z,99.90
2018-09-02T16:22:27.343Z,99.90
2018-09-02T16:24:56.258Z,99.90
2018-09-02T16:27:24.224Z,99.90
2018-09-02T16:29:55.947Z,99.90
2018-09-02T16:32:27.468Z,99.90
2018-09-02T16:34:55.953Z,99.90
2018-09-02T16:37:49.152Z,99.90
2018-09-02T16:40:19.587Z,99.90
2018-09-02T16:42:47.231Z,99.90
2018-09-02T16:45:17.494Z,99.90
2018-09-02T16:47:47.161Z,99.90
2018-09-02T16:50:25.808Z,99.90
2018-09-02T16:52:53.569Z,99.90
2018-09-02T16:55:21.061Z,99.90
2018-09-02T16:57:48.542Z,99.90
2018-09-02T17:00:17.943Z,99.90
2018-09-02T17:02:46.466Z,99.90
2018-09-02T17:05:21.543Z,99.90
2018-09-02T17:07:50.633Z,99.90
2018-09-02T17:10:20.350Z,99.90
2018-09-02T17:12:49.061Z,99.90
2018-09-02T17:15:17.865Z,99.90
2018-09-02T17:17:46.906Z,99.90
2018-09-02T17:20:21.170Z,99.90
2018-09-02T17:22:48.820Z,99.90
2018-09-02T17:25:36.473Z,99.90
2018-09-02T17:28:06.513Z,99.90
2018-09-02T17:33:36.545Z,99.90
2018-09-02T17:36:04.590Z,99.90
2018-09-02T17:38:32.525Z,99.90
2018-09-02T17:41:01.078Z,99.90
2018-09-02T17:43:28.644Z,99.90
2018-09-02T17:45:58.090Z,99.90
2018-09-02T17:48:27.269Z,99.90
2018-09-02T17:50:59.599Z,99.90
2018-09-02T17:53:28.911Z,99.90
2018-09-02T17:55:58.515Z,99.90
2018-09-02T17:58:30.641Z,99.90
2018-09-02T18:01:00.051Z,99.90
2018-09-02T18:03:29.965Z,99.90
2018-09-02T18:05:57.471Z,99.90
2018-09-02T18:08:26.357Z,99.90
2018-09-02T18:10:54.668Z,99.90
2018-09-02T18:13:23.238Z,99.90
2018-09-02T18:15:57.879Z,99.90
2018-09-02T18:18:25.570Z,99.90
2018-09-02T18:20:53.331Z,99.90
2018-09-02T18:23:20.805Z,99.90
2018-09-02T18:25:48.311Z,99.90
2018-09-02T18:28:18.531Z,99.90
2018-09-02T18:30:48.071Z,99.90
2018-09-02T18:33:15.546Z,99.90
2018-09-02T18:35:43.088Z,99.90
2018-09-02T18:38:12.217Z,99.90
2018-09-02T18:40:39.815Z,99.90
2018-09-02T18:43:09.272Z,99.90
2018-09-02T18:45:36.756Z,99.90
2018-09-02T18:48:05.102Z,99.90
2018-09-02T18:50:32.817Z,99.90
2018-09-02T18:53:00.265Z,99.90
2018-09-02T18:55:46.348Z,99.90
2018-09-02T18:58:20.824Z,99.90
2018-09-02T19:00:49.689Z,99.90
2018-09-02T19:03:17.339Z,99.90
2018-09-02T19:05:46.846Z,99.90
2018-09-02T19:08:14.587Z,99.90
2018-09-02T19:10:42.071Z,99.90
2018-09-02T19:13:09.528Z,99.90
2018-09-02T19:15:37.041Z,99.90
2018-09-02T19:18:05.283Z,99.90
2018-09-02T19:20:32.787Z,99.90
2018-09-02T19:23:00.298Z,99.90
2018-09-02T19:25:27.776Z,99.90
2018-09-02T19:27:55.799Z,99.90
2018-09-02T19:30:23.284Z,99.90
2018-09-02T19:32:50.750Z,99.90
2018-09-02T19:35:18.364Z,99.90
2018-09-02T19:37:49.094Z,99.90
2018-09-02T19:40:16.564Z,99.90
2018-09-02T19:42:43.971Z,99.90
2018-09-02T19:45:11.430Z,99.90
2018-09-02T19:47:39.333Z,99.90
2018-09-02T19:50:06.969Z,99.90
2018-09-02T19:52:36.465Z,99.90
2018-09-02T19:55:04.132Z,99.90
2018-09-02T19:57:31.703Z,99.90
2018-09-02T19:59:59.126Z,99.90
2018-09-02T20:02:26.634Z,99.90
2018-09-02T20:04:54.162Z,99.90
2018-09-02T20:07:22.106Z,99.90
2018-09-02T20:09:49.695Z,99.90
2018-09-02T20:12:17.343Z,99.90
2018-09-02T20:14:44.902Z,99.90
2018-09-02T20:17:12.458Z,99.90
2018-09-02T20:19:40.045Z,99.90
2018-09-02T20:22:09.844Z,99.90
2018-09-02T20:24:37.442Z,99.90
2018-09-02T20:27:04.958Z,99.90
2018-09-02T20:29:32.632Z,99.90
2018-09-02T20:32:00.903Z,99.90
2018-09-02T20:34:28.551Z,99.90
2018-09-02T20:36:58.900Z,99.90
2018-09-02T20:39:27.197Z,99.90
2018-09-02T20:41:54.757Z,99.90
2018-09-02T20:44:22.599Z,99.90
2018-09-02T20:46:50.088Z,99.90
2018-09-02T20:49:17.683Z,99.90
2018-09-02T20:51:47.263Z,99.90
2018-09-02T20:54:14.755Z,99.90
2018-09-02T20:56:42.318Z,99.90
2018-09-02T20:59:10.012Z,99.90
2018-09-02T21:01:37.551Z,99.90
2018-09-02T21:04:05.176Z,99.90
2018-09-02T21:06:32.613Z,99.90
2018-09-02T21:09:00.147Z,99.90
2018-09-02T21:11:27.753Z,99.90
2018-09-02T21:13:55.793Z,99.90
2018-09-02T21:16:23.299Z,99.90
2018-09-02T21:18:50.724Z,99.90
2018-09-02T21:21:18.202Z,99.90
2018-09-02T21:23:45.666Z,99.90
2018-09-02T21:26:13.316Z,99.90
2018-09-02T21:28:41.374Z,99.90
2018-09-02T21:31:09.366Z,99.90
2018-09-02T21:33:37.376Z,99.90
2018-09-02T21:36:05.482Z,99.90
2018-09-02T21:38:33.410Z,99.90
2018-09-02T21:41:00.940Z,99.90
2018-09-02T21:43:28.456Z,99.90
2018-09-02T21:45:55.912Z,99.90
2018-09-02T21:48:23.385Z,99.90
2018-09-02T21:50:50.884Z,99.90
2018-09-02T21:53:18.416Z,99.90
2018-09-02T21:55:45.981Z,99.90
2018-09-02T21:58:13.982Z,99.90
2018-09-02T22:00:42.005Z,99.90
2018-09-02T22:03:10.133Z,99.90
2018-09-02T22:05:37.705Z,99.90
2018-09-02T22:08:05.194Z,99.90
2018-09-02T22:10:32.672Z,99.90
2018-09-02T22:13:00.665Z,99.90
2018-09-02T22:15:28.398Z,99.90
2018-09-02T22:17:56.353Z,99.90
2018-09-02T22:20:24.394Z,99.90
2018-09-02T22:22:52.419Z,99.90
2018-09-02T22:25:20.202Z,99.90
2018-09-02T22:27:49.227Z,99.90
2018-09-02T22:30:17.390Z,99.90
2018-09-02T22:32:45.368Z,99.90
2018-09-02T22:35:13.359Z,99.90
2018-09-02T22:37:41.261Z,99.90
2018-09-02T22:40:09.227Z,99.90
2018-09-02T22:42:37.273Z,99.90
2018-09-02T22:45:04.779Z,99.90
2018-09-02T22:47:32.873Z,99.90
2018-09-02T22:50:00.826Z,99.90
2018-09-02T22:52:29.570Z,99.90
2018-09-02T22:54:57.139Z,99.90
2018-09-02T22:57:24.671Z,99.90
2018-09-02T22:59:52.907Z,99.90
2018-09-02T23:02:20.530Z,99.90
2018-09-02T23:04:48.056Z,99.90
2018-09-02T23:07:15.651Z,99.90
2018-09-02T23:09:43.928Z,99.90
2018-09-02T23:12:11.671Z,99.90
2018-09-02T23:14:39.336Z,99.90
2018-09-02T23:17:07.021Z,99.90
2018-09-02T23:19:34.753Z,99.90
2018-09-02T23:22:02.434Z,99.90
2018-09-02T23:24:29.914Z,99.90
2018-09-02T23:26:57.470Z,99.90
2018-09-02T23:29:25.007Z,99.90
2018-09-02T23:31:52.563Z,99.90
2018-09-02T23:34:20.083Z,99.90
2018-09-02T23:36:47.576Z,99.90
2018-09-02T23:39:15.059Z,99.90
2018-09-02T23:41:42.617Z,99.90
2018-09-02T23:44:10.131Z,99.90
2018-09-02T23:46:37.645Z,99.90
2018-09-02T23:49:05.269Z,99.90
2018-09-02T23:51:32.896Z,99.90
2018-09-02T23:54:00.378Z,99.90
2018-09-02T23:56:27.840Z,99.90
2018-09-02T23:58:55.296Z,99.90
